createdAt,value
2018-07-12T00:01:15.716Z,19.37
2018-07-12T00:03:42.914Z,19.90
2018-07-12T00:06:10.101Z,18.50
2018-07-12T00:08:37.538Z,18.27
2018-07-12T00:11:04.719Z,18.40
2018-07-12T00:13:31.880Z,18.13
2018-07-12T00:15:59.062Z,18.20
2018-07-12T00:18:26.239Z,18.27
2018-07-12T00:20:53.427Z,19.13
2018-07-12T00:23:20.593Z,17.27
2018-07-12T00:25:47.775Z,16.87
2018-07-12T00:28:14.941Z,17.07
2018-07-12T00:30:42.122Z,17.43
2018-07-12T00:33:09.305Z,18.53
2018-07-12T00:35:36.516Z,18.10
2018-07-12T00:38:03.700Z,16.30
2018-07-12T00:40:30.880Z,17.77
2018-07-12T00:42:58.053Z,17.93
2018-07-12T00:45:25.235Z,18.30
2018-07-12T00:47:52.400Z,16.73
2018-07-12T00:50:19.586Z,17.23
2018-07-12T00:52:46.758Z,16.87
2018-07-12T00:55:14.199Z,18.30
2018-07-12T00:57:41.373Z,17.40
2018-07-12T01:00:08.808Z,16.83
2018-07-12T01:02:35.974Z,17.70
2018-07-12T01:05:03.435Z,18.30
2018-07-12T01:07:30.617Z,17.27
2018-07-12T01:09:57.787Z,18.70
2018-07-12T01:12:24.975Z,18.90
2018-07-12T01:14:52.163Z,18.07
2018-07-12T01:17:19.342Z,18.60
2018-07-12T01:19:46.523Z,19.57
2018-07-12T01:22:13.714Z,21.73
2018-07-12T01:24:40.883Z,21.20
2018-07-12T01:27:08.062Z,21.43
2018-07-12T01:29:35.253Z,21.50
2018-07-12T01:32:02.447Z,23.33
2018-07-12T01:34:29.612Z,22.17
2018-07-12T01:36:56.790Z,22.50
2018-07-12T01:39:24.987Z,23.60
2018-07-12T01:41:52.167Z,22.67
2018-07-12T01:44:19.328Z,23.17
2018-07-12T01:46:46.495Z,22.80
2018-07-12T01:49:13.652Z,23.70
2018-07-12T01:51:40.821Z,22.60
2018-07-12T01:54:07.985Z,23.50
2018-07-12T01:56:35.159Z,23.00
2018-07-12T01:59:02.320Z,25.03
2018-07-12T02:01:29.503Z,25.27
2018-07-12T02:03:56.671Z,24.57
2018-07-12T02:06:23.835Z,23.63
2018-07-12T02:08:50.995Z,24.03
2018-07-12T02:11:18.171Z,23.80
2018-07-12T02:13:45.329Z,23.97
2018-07-12T02:16:12.511Z,26.50
2018-07-12T02:18:39.927Z,25.90
2018-07-12T02:21:07.095Z,25.60
2018-07-12T02:23:34.247Z,26.73
2018-07-12T02:26:01.433Z,26.03
2018-07-12T02:28:28.584Z,26.23
2018-07-12T02:30:55.756Z,27.53
2018-07-12T02:33:22.920Z,27.17
2018-07-12T02:35:50.082Z,25.80
2018-07-12T02:38:17.247Z,26.43
2018-07-12T02:40:44.407Z,25.93
2018-07-12T02:43:11.580Z,26.33
2018-07-12T02:45:38.748Z,26.57
2018-07-12T02:48:05.921Z,26.40
2018-07-12T02:50:33.078Z,24.40
2018-07-12T02:53:00.249Z,25.90
2018-07-12T02:55:27.421Z,26.40
2018-07-12T02:57:54.855Z,27.73
2018-07-12T03:00:22.029Z,26.30
2018-07-12T03:02:49.450Z,26.10
2018-07-12T03:05:16.615Z,26.03
2018-07-12T03:07:43.780Z,28.50
2018-07-12T03:10:11.203Z,27.30
2018-07-12T03:12:38.368Z,28.03
2018-07-12T03:15:05.548Z,28.27
2018-07-12T03:17:32.975Z,27.43
2018-07-12T03:20:00.224Z,26.40
2018-07-12T03:22:27.385Z,26.70
2018-07-12T03:24:54.824Z,28.13
2018-07-12T03:27:21.991Z,28.60
2018-07-12T03:29:49.411Z,28.07
2018-07-12T03:32:16.583Z,26.77
2018-07-12T03:34:43.739Z,28.10
2018-07-12T03:37:10.931Z,26.47
2018-07-12T03:39:38.089Z,29.53
2018-07-12T03:42:05.247Z,30.33
2018-07-12T03:44:32.408Z,29.30
2018-07-12T03:46:59.590Z,29.47
2018-07-12T03:49:26.775Z,28.60
2018-07-12T03:51:53.969Z,28.30
2018-07-12T03:54:21.120Z,29.27
2018-07-12T03:56:48.301Z,31.57
2018-07-12T03:59:15.967Z,31.03
2018-07-12T04:01:43.390Z,27.63
2018-07-12T04:04:10.568Z,29.43
2018-07-12T04:06:38.115Z,30.40
2018-07-12T04:09:05.673Z,28.43
2018-07-12T04:11:32.843Z,29.03
2018-07-12T04:14:00.412Z,27.27
2018-07-12T04:16:27.580Z,28.27
2018-07-12T04:18:54.744Z,28.23
2018-07-12T04:21:21.907Z,27.10
2018-07-12T04:23:49.081Z,25.80
2018-07-12T04:26:16.249Z,26.43
2018-07-12T04:28:43.682Z,24.63
2018-07-12T04:31:10.855Z,25.50
2018-07-12T04:33:38.032Z,22.83
2018-07-12T04:36:05.199Z,23.33
2018-07-12T04:38:32.369Z,23.07
2018-07-12T04:40:59.528Z,22.47
2018-07-12T04:43:26.699Z,22.97
2018-07-12T04:45:53.855Z,23.87
2018-07-12T04:48:21.023Z,22.27
2018-07-12T04:50:48.197Z,21.07
2018-07-12T04:53:15.356Z,21.57
2018-07-12T04:55:42.507Z,21.53
2018-07-12T04:58:09.736Z,21.37
2018-07-12T05:00:36.833Z,20.13
2018-07-12T05:03:04.095Z,20.67
2018-07-12T05:05:31.336Z,20.70
2018-07-12T05:07:58.504Z,21.37
2018-07-12T05:10:25.948Z,19.37
2018-07-12T05:12:53.119Z,20.27
2018-07-12T05:15:20.558Z,20.17
2018-07-12T05:17:47.719Z,19.90
2018-07-12T05:20:15.139Z,20.23
2018-07-12T05:22:42.297Z,20.03
2018-07-12T05:25:09.461Z,20.53
2018-07-12T05:27:36.631Z,19.40
2018-07-12T05:30:04.179Z,20.70
2018-07-12T05:32:31.623Z,20.77
2018-07-12T05:34:58.795Z,19.90
2018-07-12T05:37:26.671Z,21.00
2018-07-12T05:39:54.635Z,20.40
2018-07-12T05:42:22.511Z,21.10
2018-07-12T05:44:50.640Z,20.87
2018-07-12T05:47:18.759Z,22.17
2018-07-12T05:49:46.955Z,21.33
2018-07-12T05:52:15.061Z,20.90
2018-07-12T05:54:43.211Z,20.67
2018-07-12T05:57:11.328Z,22.93
2018-07-12T05:59:39.242Z,24.03
2018-07-12T06:02:18.312Z,24.03
2018-07-12T06:04:46.595Z,25.33
2018-07-12T06:07:18.980Z,26.73
2018-07-12T06:09:47.255Z,28.73
2018-07-12T06:12:15.199Z,27.50
2018-07-12T06:14:43.332Z,26.63
2018-07-12T06:17:11.448Z,28.13
2018-07-12T06:19:39.598Z,28.63
2018-07-12T06:22:07.724Z,28.87
2018-07-12T06:24:35.952Z,27.90
2018-07-12T06:27:04.036Z,31.23
2018-07-12T06:29:32.183Z,30.97
2018-07-12T06:32:00.296Z,32.73
2018-07-12T06:34:28.423Z,36.43
2018-07-12T06:36:56.624Z,36.37
2018-07-12T06:39:24.760Z,37.47
2018-07-12T06:41:53.006Z,47.60
2018-07-12T06:44:20.914Z,50.17
2018-07-12T06:46:49.069Z,39.30
2018-07-12T06:49:17.192Z,39.13
2018-07-12T06:51:45.323Z,43.77
2018-07-12T06:54:13.459Z,41.07
2018-07-12T06:56:41.342Z,39.97
2018-07-12T06:59:09.488Z,40.47
2018-07-12T07:01:37.611Z,43.07
2018-07-12T07:04:05.832Z,44.03
2018-07-12T07:06:33.953Z,45.20
2018-07-12T07:09:02.083Z,49.03
2018-07-12T07:11:29.966Z,49.90
2018-07-12T07:13:58.122Z,49.07
2018-07-12T07:16:26.031Z,49.53
2018-07-12T07:18:54.173Z,49.93
2018-07-12T07:21:22.107Z,46.07
2018-07-12T07:23:50.239Z,43.40
2018-07-12T07:26:18.474Z,49.67
2018-07-12T07:28:46.585Z,46.23
2018-07-12T07:31:14.729Z,50.27
2018-07-12T07:33:42.861Z,49.47
2018-07-12T07:36:10.988Z,49.73
2018-07-12T07:38:39.108Z,49.97
2018-07-12T07:41:07.261Z,50.53
2018-07-12T07:43:35.424Z,46.50
2018-07-12T07:46:03.548Z,45.47
2018-07-12T07:48:31.678Z,46.50
2018-07-12T07:50:59.807Z,46.30
2018-07-12T07:53:27.719Z,46.93
2018-07-12T07:55:55.848Z,49.37
2018-07-12T07:58:23.815Z,48.00
2018-07-12T08:00:51.775Z,51.33
2018-07-12T08:03:19.921Z,51.27
2018-07-12T08:05:48.059Z,52.27
2018-07-12T08:08:16.184Z,52.77
2018-07-12T08:10:44.324Z,51.30
2018-07-12T08:13:12.500Z,50.33
2018-07-12T08:15:40.632Z,47.37
2018-07-12T08:18:08.755Z,49.00
2018-07-12T08:20:36.892Z,48.40
2018-07-12T08:23:05.043Z,47.77
2018-07-12T08:25:33.007Z,49.77
2018-07-12T08:28:06.649Z,47.70
2018-07-12T08:30:34.780Z,44.13
2018-07-12T08:33:02.911Z,50.97
2018-07-12T08:35:31.028Z,53.97
2018-07-12T08:37:58.939Z,52.87
2018-07-12T08:40:27.127Z,52.97
2018-07-12T08:42:55.230Z,54.37
2018-07-12T08:45:23.379Z,49.97
2018-07-12T08:47:51.514Z,50.13
2018-07-12T08:50:19.643Z,48.70
2018-07-12T08:52:47.824Z,47.60
2018-07-12T08:55:16.103Z,48.03
2018-07-12T08:57:44.676Z,46.83
2018-07-12T09:00:12.811Z,44.80
2018-07-12T09:02:41.292Z,45.33
2018-07-12T09:05:09.389Z,44.67
2018-07-12T09:07:37.520Z,44.67
2018-07-12T09:10:05.845Z,43.27
2018-07-12T09:12:34.975Z,44.23
2018-07-12T09:15:03.088Z,42.83
2018-07-12T09:17:31.203Z,42.93
2018-07-12T09:19:59.344Z,42.67
2018-07-12T09:22:27.480Z,43.00
2018-07-12T09:24:55.624Z,43.57
2018-07-12T09:27:23.541Z,43.50
2018-07-12T09:29:51.679Z,43.27
2018-07-12T09:32:19.643Z,43.10
2018-07-12T09:34:47.755Z,42.13
2018-07-12T09:37:15.884Z,41.83
2018-07-12T09:39:43.826Z,44.53
2018-07-12T09:42:11.927Z,42.63
2018-07-12T09:44:40.065Z,41.73
2018-07-12T09:47:08.228Z,42.53
2018-07-12T09:49:36.324Z,42.50
2018-07-12T09:52:08.715Z,45.67
2018-07-12T09:54:36.624Z,43.93
2018-07-12T09:57:16.278Z,44.23
2018-07-12T09:59:44.398Z,44.47
2018-07-12T10:02:17.964Z,42.73
2018-07-12T10:04:46.109Z,43.97
2018-07-12T10:07:19.795Z,42.50
2018-07-12T10:09:53.424Z,34.93
2018-07-12T10:12:27.032Z,36.97
2018-07-12T10:15:00.806Z,38.03
2018-07-12T10:17:34.620Z,38.27
2018-07-12T10:20:03.653Z,41.03
2018-07-12T10:22:31.795Z,37.10
2018-07-12T10:24:59.919Z,37.00
2018-07-12T10:27:28.220Z,36.63
2018-07-12T10:29:56.391Z,35.67
2018-07-12T10:32:24.592Z,36.03
2018-07-12T10:34:52.703Z,37.30
2018-07-12T10:37:20.836Z,35.80
2018-07-12T10:39:48.965Z,33.63
2018-07-12T10:42:17.104Z,29.23
2018-07-12T10:44:45.230Z,29.80
2018-07-12T10:47:13.363Z,28.93
2018-07-12T10:49:41.495Z,26.10
2018-07-12T10:52:09.664Z,26.87
2018-07-12T10:54:37.794Z,21.03
2018-07-12T10:57:06.097Z,21.37
2018-07-12T10:59:34.327Z,21.93
2018-07-12T11:02:02.472Z,20.60
2018-07-12T11:04:30.640Z,20.37
2018-07-12T11:06:58.728Z,17.97
2018-07-12T11:09:26.870Z,13.80
2018-07-12T11:11:55.004Z,13.30
2018-07-12T11:14:23.128Z,14.17
2018-07-12T11:16:51.271Z,11.73
2018-07-12T11:19:19.207Z,13.23
2018-07-12T11:21:47.388Z,26.00
2018-07-12T11:24:15.524Z,26.53
2018-07-12T11:26:43.640Z,27.73
2018-07-12T11:29:11.760Z,27.07
2018-07-12T11:31:39.896Z,26.40
2018-07-12T11:34:07.846Z,24.03
2018-07-12T11:36:35.993Z,22.23
2018-07-12T11:39:05.846Z,20.67
2018-07-12T11:41:33.996Z,20.23
2018-07-12T11:44:02.120Z,19.63
2018-07-12T11:46:30.239Z,19.97
2018-07-12T11:48:58.388Z,20.43
2018-07-12T11:51:26.528Z,21.23
2018-07-12T11:53:54.649Z,20.30
2018-07-12T11:56:22.792Z,20.57
2018-07-12T11:58:51.043Z,21.97
2018-07-12T12:01:19.184Z,20.40
2018-07-12T12:03:47.323Z,19.10
2018-07-12T12:06:15.445Z,18.30
2018-07-12T12:08:43.596Z,19.00
2018-07-12T12:11:11.732Z,19.07
2018-07-12T12:13:39.871Z,17.67
2018-07-12T12:16:07.763Z,18.13
2018-07-12T12:18:35.900Z,17.97
2018-07-12T12:21:04.024Z,18.20
2018-07-12T12:23:32.196Z,19.50
2018-07-12T12:26:00.293Z,17.83
2018-07-12T12:28:28.440Z,17.83
2018-07-12T12:30:56.568Z,16.90
2018-07-12T12:33:24.721Z,14.43
2018-07-12T12:35:52.807Z,15.60
2018-07-12T12:38:20.935Z,15.80
2018-07-12T12:40:49.052Z,14.43
2018-07-12T12:43:17.200Z,14.53
2018-07-12T12:45:45.455Z,14.00
2018-07-12T12:48:13.591Z,14.83
2018-07-12T12:50:41.515Z,13.80
2018-07-12T12:53:09.665Z,17.30
2018-07-12T12:55:37.796Z,16.93
2018-07-12T12:58:05.752Z,18.03
2018-07-12T13:00:33.893Z,16.80
2018-07-12T13:03:02.028Z,16.43
2018-07-12T13:05:30.148Z,16.67
2018-07-12T13:07:58.297Z,16.33
2018-07-12T13:10:26.423Z,16.57
2018-07-12T13:12:54.546Z,15.87
2018-07-12T13:15:22.691Z,15.97
2018-07-12T13:17:50.829Z,16.03
2018-07-12T13:20:19.066Z,14.50
2018-07-12T13:22:47.175Z,13.60
2018-07-12T13:25:15.285Z,14.57
2018-07-12T13:27:43.436Z,12.17
2018-07-12T13:30:11.562Z,14.40
2018-07-12T13:32:39.675Z,12.97
2018-07-12T13:35:07.797Z,13.30
2018-07-12T13:37:35.954Z,12.93
2018-07-12T13:40:04.083Z,15.40
2018-07-12T13:42:32.219Z,16.37
2018-07-12T13:45:00.330Z,13.60
2018-07-12T13:47:28.450Z,14.13
2018-07-12T13:49:56.574Z,17.07
2018-07-12T13:52:24.724Z,15.20
2018-07-12T13:54:52.871Z,15.20
2018-07-12T13:57:20.995Z,16.20
2018-07-12T13:59:49.148Z,15.57
2018-07-12T14:02:17.260Z,13.97
2018-07-12T14:04:45.211Z,15.37
2018-07-12T14:07:13.338Z,13.77
2018-07-12T14:09:41.512Z,13.67
2018-07-12T14:12:09.618Z,13.10
2018-07-12T14:14:37.745Z,13.13
2018-07-12T14:17:05.861Z,14.07
2018-07-12T14:19:33.999Z,12.80
2018-07-12T14:22:02.122Z,16.07
2018-07-12T14:24:30.277Z,13.20
2018-07-12T14:26:58.408Z,14.80
2018-07-12T14:29:26.535Z,13.70
2018-07-12T14:31:54.666Z,13.53
2018-07-12T14:34:22.790Z,14.20
2018-07-12T14:36:50.899Z,12.60
2018-07-12T14:39:19.030Z,13.63
2018-07-12T14:41:47.157Z,12.90
2018-07-12T14:44:15.296Z,12.20
2018-07-12T14:46:43.420Z,12.93
2018-07-12T14:49:11.560Z,13.33
2018-07-12T14:51:39.682Z,13.63
2018-07-12T14:54:07.803Z,13.03
2018-07-12T14:56:35.936Z,12.93
2018-07-12T14:59:04.104Z,13.63
2018-07-12T15:01:32.379Z,12.77
2018-07-12T15:04:00.501Z,13.83
2018-07-12T15:06:28.616Z,14.30
2018-07-12T15:08:56.758Z,14.10
2018-07-12T15:11:24.887Z,12.07
2018-07-12T15:13:52.840Z,12.07
2018-07-12T15:16:20.972Z,11.40
2018-07-12T15:18:49.148Z,11.20
2018-07-12T15:21:17.297Z,12.20
2018-07-12T15:23:45.437Z,13.27
2018-07-12T15:26:13.584Z,12.77
2018-07-12T15:28:41.680Z,14.17
2018-07-12T15:31:09.833Z,12.40
2018-07-12T15:33:37.949Z,13.80
2018-07-12T15:36:05.907Z,14.60
2018-07-12T15:38:34.052Z,13.77
2018-07-12T15:41:02.198Z,13.97
2018-07-12T15:43:30.308Z,13.10
2018-07-12T15:45:58.448Z,14.10
2018-07-12T15:48:26.571Z,13.90
2018-07-12T15:50:54.483Z,13.60
2018-07-12T15:53:22.692Z,12.53
2018-07-12T15:55:50.823Z,13.17
2018-07-12T15:58:18.944Z,12.57
2018-07-12T16:00:47.085Z,12.73
2018-07-12T16:03:15.198Z,13.63
2018-07-12T16:05:43.336Z,13.77
2018-07-12T16:08:11.594Z,11.93
2018-07-12T16:10:39.720Z,12.40
2018-07-12T16:13:07.615Z,12.93
2018-07-12T16:15:35.776Z,12.97
2018-07-12T16:18:04.529Z,12.50
2018-07-12T16:20:32.670Z,12.67
2018-07-12T16:23:00.817Z,12.77
2018-07-12T16:25:28.951Z,13.73
2018-07-12T16:27:57.084Z,13.83
2018-07-12T16:30:25.256Z,13.50
2018-07-12T16:32:53.372Z,14.07
2018-07-12T16:35:21.509Z,13.33
2018-07-12T16:37:49.677Z,13.80
2018-07-12T16:40:17.817Z,14.27
2018-07-12T16:42:45.716Z,14.07
2018-07-12T16:45:13.859Z,14.80
2018-07-12T16:47:41.984Z,15.80
2018-07-12T16:50:10.136Z,14.13
2018-07-12T16:52:38.244Z,13.67
2018-07-12T16:55:06.483Z,14.07
2018-07-12T16:57:34.603Z,14.33
2018-07-12T17:00:02.748Z,14.97
2018-07-12T17:02:30.871Z,13.80
2018-07-12T17:04:59.007Z,14.67
2018-07-12T17:07:27.152Z,12.93
2018-07-12T17:09:55.322Z,14.17
2018-07-12T17:12:23.452Z,14.37
2018-07-12T17:14:51.347Z,13.13
2018-07-12T17:17:19.502Z,12.73
2018-07-12T17:19:47.408Z,12.03
2018-07-12T17:22:15.547Z,12.10
2018-07-12T17:24:43.668Z,10.40
2018-07-12T17:27:11.858Z,10.93
2018-07-12T17:29:39.943Z,11.97
2018-07-12T17:32:08.060Z,11.53
2018-07-12T17:34:36.168Z,12.57
2018-07-12T17:37:04.322Z,12.60
2018-07-12T17:39:32.433Z,11.30
2018-07-12T17:42:00.603Z,10.93
2018-07-12T17:44:28.727Z,10.57
2018-07-12T17:46:56.891Z,10.20
2018-07-12T17:49:24.996Z,9.80
2018-07-12T17:51:53.149Z,10.33
2018-07-12T17:54:21.294Z,10.17
2018-07-12T17:56:49.424Z,9.13
2018-07-12T17:59:17.543Z,9.20
2018-07-12T18:01:45.689Z,9.53
2018-07-12T18:04:13.808Z,8.30
2018-07-12T18:06:41.971Z,9.67
2018-07-12T18:09:10.089Z,9.93
2018-07-12T18:11:38.229Z,9.80
2018-07-12T18:14:06.344Z,10.50
2018-07-12T18:16:34.471Z,9.30
2018-07-12T18:19:02.609Z,8.67
2018-07-12T18:21:30.765Z,8.70
2018-07-12T18:23:58.885Z,8.93
2018-07-12T18:26:27.007Z,8.37
2018-07-12T18:28:55.152Z,9.27
2018-07-12T18:31:23.271Z,9.47
2018-07-12T18:33:51.223Z,10.07
2018-07-12T18:36:19.339Z,11.20
2018-07-12T18:38:47.490Z,10.40
2018-07-12T18:41:15.652Z,10.50
2018-07-12T18:43:43.849Z,11.70
2018-07-12T18:46:11.977Z,11.87
2018-07-12T18:48:40.111Z,10.67
2018-07-12T18:51:08.290Z,10.70
2018-07-12T18:53:36.408Z,11.50
2018-07-12T18:56:04.535Z,11.07
2018-07-12T18:58:32.710Z,11.53
2018-07-12T19:01:00.811Z,10.40
2018-07-12T19:03:28.940Z,12.87
2018-07-12T19:05:57.065Z,11.23
2018-07-12T19:08:25.215Z,12.20
2018-07-12T19:10:53.350Z,12.43
2018-07-12T19:13:21.476Z,12.90
2018-07-12T19:15:49.607Z,13.37
2018-07-12T19:18:17.720Z,12.03
2018-07-12T19:20:45.903Z,13.00
2018-07-12T19:23:14.020Z,12.97
2018-07-12T19:25:42.158Z,13.60
2018-07-12T19:28:10.293Z,13.00
2018-07-12T19:30:38.416Z,14.53
2018-07-12T19:33:06.322Z,13.60
2018-07-12T19:35:34.520Z,14.30
2018-07-12T19:38:02.676Z,14.47
2018-07-12T19:40:30.815Z,14.43
2018-07-12T19:42:58.943Z,14.67
2018-07-12T19:45:27.077Z,15.37
2018-07-12T19:47:55.259Z,15.03
2018-07-12T19:50:23.368Z,14.40
2018-07-12T19:52:51.503Z,15.20
2018-07-12T19:55:19.657Z,14.47
2018-07-12T19:57:47.808Z,13.33
2018-07-12T20:00:15.932Z,14.60
2018-07-12T20:02:44.045Z,13.50
2018-07-12T20:05:12.175Z,13.23
2018-07-12T20:07:40.340Z,13.93
2018-07-12T20:10:08.459Z,13.93
2018-07-12T20:12:36.579Z,14.10
2018-07-12T20:15:05.276Z,13.53
2018-07-12T20:17:33.376Z,13.70
2018-07-12T20:20:01.516Z,13.60
2018-07-12T20:22:29.651Z,13.90
2018-07-12T20:24:57.784Z,13.13
2018-07-12T20:27:25.920Z,14.77
2018-07-12T20:29:54.040Z,14.33
2018-07-12T20:32:22.179Z,13.60
2018-07-12T20:34:50.320Z,13.87
2018-07-12T20:37:18.487Z,13.73
2018-07-12T20:39:46.447Z,13.67
2018-07-12T20:42:14.602Z,13.40
2018-07-12T20:44:42.744Z,15.43
2018-07-12T20:47:10.848Z,14.53
2018-07-12T20:49:38.992Z,14.37
2018-07-12T20:52:07.199Z,14.00
2018-07-12T20:54:35.342Z,14.47
2018-07-12T20:57:03.480Z,14.00
2018-07-12T20:59:31.611Z,14.77
2018-07-12T21:01:59.743Z,14.63
2018-07-12T21:04:27.867Z,13.67
2018-07-12T21:06:55.997Z,15.40
2018-07-12T21:09:24.125Z,15.47
2018-07-12T21:11:52.256Z,15.60
2018-07-12T21:14:20.392Z,15.03
2018-07-12T21:16:48.548Z,16.43
2018-07-12T21:19:16.663Z,15.17
2018-07-12T21:21:44.797Z,15.20
2018-07-12T21:24:12.684Z,15.27
2018-07-12T21:26:40.840Z,13.87
2018-07-12T21:29:08.787Z,14.43
2018-07-12T21:31:36.932Z,14.10
2018-07-12T21:34:05.077Z,14.30
2018-07-12T21:36:33.200Z,13.97
2018-07-12T21:39:02.372Z,13.80
2018-07-12T21:41:30.495Z,14.00
2018-07-12T21:43:58.373Z,13.97
2018-07-12T21:46:26.534Z,13.67
2018-07-12T21:48:54.431Z,13.77
2018-07-12T21:51:22.569Z,12.70
2018-07-12T21:53:50.510Z,13.63
2018-07-12T21:56:18.674Z,13.20
2018-07-12T21:58:46.800Z,13.13
2018-07-12T22:01:14.928Z,13.43
2018-07-12T22:03:43.056Z,13.83
2018-07-12T22:06:11.175Z,13.50
2018-07-12T22:08:39.313Z,13.77
2018-07-12T22:11:07.439Z,13.37
2018-07-12T22:13:36.653Z,13.90
2018-07-12T22:16:04.540Z,13.63
2018-07-12T22:18:32.696Z,14.13
2018-07-12T22:21:00.861Z,15.00
2018-07-12T22:23:28.987Z,14.60
2018-07-12T22:25:57.117Z,14.67
2018-07-12T22:28:25.272Z,14.63
2018-07-12T22:30:53.391Z,13.50
2018-07-12T22:33:21.531Z,15.23
2018-07-12T22:35:49.659Z,15.97
2018-07-12T22:38:17.802Z,15.53
2018-07-12T22:40:45.951Z,15.67
2018-07-12T22:43:13.904Z,16.20
2018-07-12T22:45:41.857Z,16.17
2018-07-12T22:48:10.046Z,14.97
2018-07-12T22:50:38.122Z,16.40
2018-07-12T22:53:06.012Z,16.00
2018-07-12T22:55:34.244Z,16.83
2018-07-12T22:58:02.387Z,16.80
2018-07-12T23:00:30.520Z,17.43
2018-07-12T23:02:58.826Z,15.67
2018-07-12T23:05:26.944Z,16.80
2018-07-12T23:07:55.096Z,16.27
2018-07-12T23:10:23.215Z,17.40
2018-07-12T23:12:51.348Z,15.40
2018-07-12T23:15:19.479Z,14.87
2018-07-12T23:17:47.605Z,15.00
2018-07-12T23:20:15.745Z,12.83
2018-07-12T23:22:43.912Z,13.33
2018-07-12T23:25:12.036Z,12.83
2018-07-12T23:27:39.996Z,13.47
2018-07-12T23:30:08.127Z,14.80
2018-07-12T23:32:36.253Z,14.50
2018-07-12T23:35:04.164Z,14.77
2018-07-12T23:37:32.292Z,14.40
2018-07-12T23:40:00.251Z,14.70
2018-07-12T23:42:28.375Z,14.57
2018-07-12T23:44:56.508Z,15.10
2018-07-12T23:47:24.518Z,15.53
2018-07-12T23:49:52.851Z,13.80
2018-07-12T23:52:20.847Z,13.97
2018-07-12T23:54:49.003Z,14.93
2018-07-12T23:57:16.889Z,14.80
2018-07-12T23:59:45.007Z,14.03
